createdAt,value
2018-03-20T00:00:06.081Z,1013.27
2018-03-20T00:01:06.552Z,1013.29
2018-03-20T00:02:04.158Z,1013.31
2018-03-20T00:03:04.066Z,1013.32
2018-03-20T00:04:04.073Z,1013.31
2018-03-20T00:05:04.253Z,1013.31
2018-03-20T00:06:04.123Z,1013.27
2018-03-20T00:07:03.973Z,1013.30
2018-03-20T00:08:04.557Z,1013.30
2018-03-20T00:09:04.142Z,1013.30
2018-03-20T00:10:06.307Z,1013.28
2018-03-20T00:11:37.274Z,1013.29
2018-03-20T00:12:04.212Z,1013.28
2018-03-20T00:13:03.842Z,1013.26
2018-03-20T00:14:03.880Z,1013.25
2018-03-20T00:15:03.806Z,1013.23
2018-03-20T00:16:03.796Z,1013.22
2018-03-20T00:17:03.969Z,1013.22
2018-03-20T00:18:03.700Z,1013.22
2018-03-20T00:19:03.726Z,1013.19
2018-03-20T00:20:03.663Z,1013.25
2018-03-20T00:21:03.653Z,1013.25
2018-03-20T00:23:58.147Z,1013.23
2018-03-20T00:24:45.143Z,1013.23
2018-03-20T00:25:45.171Z,1013.19
2018-03-20T00:26:45.173Z,1013.19
2018-03-20T00:27:45.792Z,1013.18
2018-03-20T00:35:22.166Z,1013.29
2018-03-20T00:36:16.152Z,1013.31
2018-03-20T00:37:15.675Z,1013.28
2018-03-20T00:38:16.294Z,1013.29
2018-03-20T00:39:17.101Z,1013.26
2018-03-20T00:40:15.551Z,1013.26
2018-03-20T00:41:15.254Z,1013.28
2018-03-20T00:42:16.772Z,1013.29
2018-03-20T00:44:28.230Z,1013.33
2018-03-20T00:46:20.744Z,1013.38
2018-03-20T00:47:19.212Z,1013.34
2018-03-20T00:48:24.176Z,1013.35
2018-03-20T00:54:58.591Z,1013.48
2018-03-20T00:56:03.258Z,1013.53
2018-03-20T01:00:40.693Z,1013.48
2018-03-20T01:03:40.717Z,1013.49
2018-03-20T01:12:02.155Z,1013.48
2018-03-20T01:13:27.870Z,1013.50
2018-03-20T01:16:37.365Z,1013.53
2018-03-20T01:17:55.851Z,1013.55
2018-03-20T01:22:41.757Z,1013.52
2018-03-20T01:23:43.267Z,1013.53
2018-03-20T01:25:02.284Z,1013.57
2018-03-20T01:25:40.755Z,1013.56
2018-03-20T01:29:45.265Z,1013.58
2018-03-20T01:30:48.293Z,1013.61
2018-03-20T01:31:45.766Z,1013.56
2018-03-20T01:32:42.490Z,1013.60
2018-03-20T01:36:55.749Z,1013.56
2018-03-20T01:39:31.407Z,1013.56
2018-03-20T01:40:31.032Z,1013.58
2018-03-20T01:41:39.092Z,1013.54
2018-03-20T01:42:41.330Z,1013.52
2018-03-20T01:43:31.098Z,1013.53
2018-03-20T01:44:31.198Z,1013.45
2018-03-20T01:45:42.122Z,1013.42
2018-03-20T01:46:35.859Z,1013.45
2018-03-20T01:50:49.651Z,1013.47
2018-03-20T01:51:48.493Z,1013.51
2018-03-20T01:55:44.821Z,1013.58
2018-03-20T01:56:43.236Z,1013.55
2018-03-20T01:57:49.537Z,1013.55
2018-03-20T01:58:43.335Z,1013.54
2018-03-20T01:59:43.531Z,1013.54
2018-03-20T02:00:44.142Z,1013.54
2018-03-20T02:01:43.407Z,1013.45
2018-03-20T02:02:43.109Z,1013.47
2018-03-20T02:03:44.729Z,1013.46
2018-03-20T02:04:43.144Z,1013.49
2018-03-20T02:05:45.134Z,1013.48
2018-03-20T02:06:43.353Z,1013.45
2018-03-20T02:07:44.982Z,1013.43
2018-03-20T02:08:44.736Z,1013.44
2018-03-20T02:09:43.214Z,1013.44
2018-03-20T02:10:43.054Z,1013.41
2018-03-20T02:11:42.905Z,1013.34
2018-03-20T02:12:42.910Z,1013.34
2018-03-20T02:13:43.003Z,1013.29
2018-03-20T02:14:42.826Z,1013.31
2018-03-20T02:15:42.708Z,1013.28
2018-03-20T02:16:42.670Z,1013.35
2018-03-20T02:17:42.678Z,1013.33
2018-03-20T02:18:42.649Z,1013.37
2018-03-20T02:19:42.904Z,1013.40
2018-03-20T02:20:51.019Z,1013.36
2018-03-20T02:21:42.658Z,1013.33
2018-03-20T02:22:42.505Z,1013.29
2018-03-20T02:23:42.634Z,1013.38
2018-03-20T02:24:42.410Z,1013.38
2018-03-20T02:25:42.456Z,1013.43
2018-03-20T02:26:42.406Z,1013.44
2018-03-20T02:27:42.392Z,1013.44
2018-03-20T02:28:42.382Z,1013.40
2018-03-20T02:29:42.340Z,1013.41
2018-03-20T02:30:42.288Z,1013.41
2018-03-20T02:31:42.293Z,1013.37
2018-03-20T02:32:42.211Z,1013.43
2018-03-20T02:33:42.191Z,1013.47
2018-03-20T02:34:42.213Z,1013.44
2018-03-20T02:35:42.164Z,1013.45
2018-03-20T02:36:42.161Z,1013.48
2018-03-20T02:37:42.110Z,1013.47
2018-03-20T02:38:42.014Z,1013.44
2018-03-20T02:39:42.039Z,1013.41
2018-03-20T02:40:41.956Z,1013.43
2018-03-20T02:41:41.932Z,1013.45
2018-03-20T02:42:41.947Z,1013.49
2018-03-20T02:43:41.968Z,1013.45
2018-03-20T02:44:45.041Z,1013.45
2018-03-20T02:45:43.437Z,1013.46
2018-03-20T02:46:41.861Z,1013.45
2018-03-20T02:47:41.809Z,1013.49
2018-03-20T02:48:41.806Z,1013.47
2018-03-20T02:49:41.793Z,1013.48
2018-03-20T02:50:41.743Z,1013.44
2018-03-20T02:51:42.278Z,1013.43
2018-03-20T02:52:42.262Z,1013.47
2018-03-20T02:53:44.307Z,1013.48
2018-03-20T02:54:43.948Z,1013.42
2018-03-20T02:55:41.922Z,1013.39
2018-03-20T02:56:42.126Z,1013.35
2018-03-20T02:57:42.023Z,1013.30
2018-03-20T02:58:41.893Z,1013.26
2018-03-20T02:59:41.932Z,1013.22
2018-03-20T03:00:41.865Z,1013.13
2018-03-20T03:01:42.187Z,1013.11
2018-03-20T03:02:41.702Z,1013.06
2018-03-20T03:03:41.731Z,1013.09
2018-03-20T03:04:41.687Z,1013.13
2018-03-20T03:05:42.053Z,1013.16
2018-03-20T03:06:58.665Z,1013.17
2018-03-20T03:07:43.101Z,1013.24
2018-03-20T03:08:42.495Z,1013.24
2018-03-20T03:09:42.118Z,1013.22
2018-03-20T03:10:42.143Z,1013.29
2018-03-20T03:11:43.377Z,1013.27
2018-03-20T03:12:42.877Z,1013.29
2018-03-20T03:13:43.678Z,1013.33
2018-03-20T03:14:57.337Z,1013.36
2018-03-20T03:15:41.666Z,1013.38
2018-03-20T03:16:41.897Z,1013.35
2018-03-20T03:17:41.230Z,1013.35
2018-03-20T03:19:02.292Z,1013.34
2018-03-20T03:19:41.174Z,1013.35
2018-03-20T03:20:41.439Z,1013.30
2018-03-20T03:21:41.331Z,1013.29
2018-03-20T03:22:41.145Z,1013.23
2018-03-20T03:23:41.200Z,1013.27
2018-03-20T03:24:41.157Z,1013.28
2018-03-20T03:25:41.204Z,1013.25
2018-03-20T03:26:41.071Z,1013.21
2018-03-20T03:27:41.245Z,1013.16
2018-03-20T03:28:41.022Z,1013.19
2018-03-20T03:29:40.901Z,1013.21
2018-03-20T03:30:40.880Z,1013.27
2018-03-20T03:31:40.884Z,1013.22
2018-03-20T03:32:40.836Z,1013.24
2018-03-20T03:33:40.818Z,1013.21
2018-03-20T03:34:41.102Z,1013.17
2018-03-20T03:35:41.080Z,1013.21
2018-03-20T03:36:41.242Z,1013.19
2018-03-20T03:37:45.320Z,1013.17
2018-03-20T03:38:53.692Z,1013.25
2018-03-20T03:39:42.977Z,1013.21
2018-03-20T03:40:49.924Z,1013.25
2018-03-20T03:41:40.960Z,1013.25
2018-03-20T03:42:40.658Z,1013.24
2018-03-20T03:43:41.551Z,1013.24
2018-03-20T03:44:40.609Z,1013.21
2018-03-20T03:45:40.564Z,1013.26
2018-03-20T03:46:40.592Z,1013.22
2018-03-20T03:47:40.538Z,1013.22
2018-03-20T03:48:40.483Z,1013.30
2018-03-20T03:49:40.474Z,1013.32
2018-03-20T03:50:40.452Z,1013.31
2018-03-20T03:51:40.470Z,1013.32
2018-03-20T03:52:40.396Z,1013.30
2018-03-20T03:53:40.371Z,1013.30
2018-03-20T03:54:40.343Z,1013.29
2018-03-20T03:55:40.352Z,1013.30
2018-03-20T03:56:40.310Z,1013.28
2018-03-20T03:57:40.296Z,1013.31
2018-03-20T03:58:40.299Z,1013.30
2018-03-20T03:59:40.242Z,1013.26
2018-03-20T04:00:40.218Z,1013.30
2018-03-20T04:01:40.208Z,1013.27
2018-03-20T04:02:40.186Z,1013.28
2018-03-20T04:03:40.156Z,1013.31
2018-03-20T04:04:40.158Z,1013.27
2018-03-20T04:05:40.116Z,1013.27
2018-03-20T04:06:40.094Z,1013.27
2018-03-20T04:07:40.142Z,1013.23
2018-03-20T04:08:40.054Z,1013.22
2018-03-20T04:09:40.031Z,1013.28
2018-03-20T04:10:40.047Z,1013.20
2018-03-20T04:11:39.983Z,1013.21
2018-03-20T04:12:39.961Z,1013.20
2018-03-20T04:13:39.947Z,1013.20
2018-03-20T04:14:39.922Z,1013.20
2018-03-20T04:15:39.928Z,1013.20
2018-03-20T04:16:39.908Z,1013.18
2018-03-20T04:17:39.858Z,1013.20
2018-03-20T04:18:39.830Z,1013.17
2018-03-20T04:19:39.811Z,1013.16
2018-03-20T04:20:39.802Z,1013.13
2018-03-20T04:21:39.765Z,1013.12
2018-03-20T04:22:39.762Z,1013.15
2018-03-20T04:23:39.722Z,1013.10
2018-03-20T04:24:39.699Z,1013.10
2018-03-20T04:25:39.683Z,1013.06
2018-03-20T04:26:39.659Z,1013.08
2018-03-20T04:27:39.633Z,1013.04
2018-03-20T04:28:39.645Z,1013.06
2018-03-20T04:29:39.602Z,1013.07
2018-03-20T04:30:39.574Z,1013.07
2018-03-20T04:31:39.547Z,1013.07
2018-03-20T04:32:39.546Z,1013.07
2018-03-20T04:33:39.519Z,1013.06
2018-03-20T04:34:39.773Z,1013.04
2018-03-20T04:35:39.463Z,1013.01
2018-03-20T04:36:39.449Z,1013.00
2018-03-20T04:37:39.420Z,1013.01
2018-03-20T04:38:39.395Z,1013.02
2018-03-20T04:39:39.409Z,1013.00
2018-03-20T04:40:39.581Z,1012.98
2018-03-20T04:41:39.430Z,1013.09
2018-03-20T04:42:39.454Z,1013.05
2018-03-20T04:43:39.302Z,1013.04
2018-03-20T04:44:39.279Z,1013.02
2018-03-20T04:45:39.246Z,1013.02
2018-03-20T04:46:39.259Z,1013.00
2018-03-20T04:47:39.243Z,1013.00
2018-03-20T04:48:39.204Z,1012.98
2018-03-20T04:49:39.184Z,1012.99
2018-03-20T04:50:39.209Z,1013.01
2018-03-20T04:51:39.188Z,1013.04
2018-03-20T04:52:39.166Z,1013.03
2018-03-20T04:53:39.101Z,1013.03
2018-03-20T04:54:39.069Z,1013.03
2018-03-20T04:55:39.163Z,1012.98
2018-03-20T04:56:39.134Z,1012.99
2018-03-20T04:57:39.067Z,1012.99
2018-03-20T04:58:39.005Z,1012.99
2018-03-20T04:59:38.958Z,1013.02
2018-03-20T05:00:38.947Z,1013.03
2018-03-20T05:01:38.888Z,1013.02
2018-03-20T05:02:38.950Z,1013.00
2018-03-20T05:03:38.865Z,1012.98
2018-03-20T05:04:38.843Z,1012.92
2018-03-20T05:05:38.806Z,1012.96
2018-03-20T05:06:38.818Z,1012.97
2018-03-20T05:07:38.799Z,1013.04
2018-03-20T05:08:38.745Z,1013.03
2018-03-20T05:09:38.747Z,1013.03
2018-03-20T05:10:38.711Z,1013.10
2018-03-20T05:11:38.704Z,1013.09
2018-03-20T05:12:38.662Z,1013.08
2018-03-20T05:13:38.638Z,1013.09
2018-03-20T05:14:39.419Z,1013.10
2018-03-20T05:15:41.693Z,1013.11
2018-03-20T05:16:40.817Z,1013.10
2018-03-20T05:17:38.887Z,1013.09
2018-03-20T05:18:38.721Z,1013.06
2018-03-20T05:19:38.698Z,1013.07
2018-03-20T05:20:38.699Z,1013.11
2018-03-20T05:21:38.774Z,1013.14
2018-03-20T05:22:38.569Z,1013.12
2018-03-20T05:23:38.777Z,1013.10
2018-03-20T05:24:41.379Z,1013.10
2018-03-20T05:25:38.558Z,1013.12
2018-03-20T05:26:38.738Z,1013.15
2018-03-20T05:27:38.355Z,1013.17
2018-03-20T05:28:38.328Z,1013.18
2018-03-20T05:29:38.331Z,1013.19
2018-03-20T05:30:38.289Z,1013.19
2018-03-20T05:31:38.341Z,1013.18
2018-03-20T05:32:38.341Z,1013.18
2018-03-20T05:33:38.280Z,1013.18
2018-03-20T05:34:38.296Z,1013.20
2018-03-20T05:35:38.260Z,1013.18
2018-03-20T05:36:38.431Z,1013.20
2018-03-20T05:37:38.181Z,1013.19
2018-03-20T05:38:38.327Z,1013.24
2018-03-20T05:39:38.377Z,1013.18
2018-03-20T05:40:38.159Z,1013.16
2018-03-20T05:41:38.049Z,1013.19
2018-03-20T05:42:38.112Z,1013.22
2018-03-20T05:43:38.117Z,1013.26
2018-03-20T05:44:38.144Z,1013.18
2018-03-20T05:45:37.995Z,1013.27
2018-03-20T05:46:38.113Z,1013.27
2018-03-20T05:47:38.058Z,1013.27
2018-03-20T05:48:37.914Z,1013.28
2018-03-20T05:49:37.964Z,1013.28
2018-03-20T05:50:37.852Z,1013.27
2018-03-20T05:51:37.829Z,1013.30
2018-03-20T05:52:37.796Z,1013.31
2018-03-20T05:53:37.800Z,1013.26
2018-03-20T05:54:37.762Z,1013.27
2018-03-20T05:55:37.726Z,1013.30
2018-03-20T05:56:37.719Z,1013.28
2018-03-20T05:57:37.716Z,1013.27
2018-03-20T05:58:37.704Z,1013.28
2018-03-20T05:59:37.676Z,1013.31
2018-03-20T06:00:37.652Z,1013.28
2018-03-20T06:01:37.965Z,1013.28
2018-03-20T06:02:37.585Z,1013.30
2018-03-20T06:03:37.572Z,1013.31
2018-03-20T06:04:37.574Z,1013.31
2018-03-20T06:05:37.525Z,1013.29
2018-03-20T06:06:37.494Z,1013.30
2018-03-20T06:07:37.500Z,1013.32
2018-03-20T06:08:37.438Z,1013.32
2018-03-20T06:09:40.515Z,1013.41
2018-03-20T06:10:40.002Z,1013.39
2018-03-20T06:11:37.378Z,1013.41
2018-03-20T06:12:37.369Z,1013.38
2018-03-20T06:13:37.383Z,1013.36
2018-03-20T06:14:37.349Z,1013.36
2018-03-20T06:15:37.295Z,1013.39
2018-03-20T06:16:37.315Z,1013.38
2018-03-20T06:17:37.255Z,1013.38
2018-03-20T06:18:37.250Z,1013.41
2018-03-20T06:19:37.220Z,1013.39
2018-03-20T06:20:37.240Z,1013.40
2018-03-20T06:21:37.209Z,1013.41
2018-03-20T06:22:37.153Z,1013.40
2018-03-20T06:23:37.129Z,1013.41
2018-03-20T06:24:37.144Z,1013.38
2018-03-20T06:25:37.100Z,1013.42
2018-03-20T06:26:37.075Z,1013.49
2018-03-20T06:27:37.069Z,1013.53
2018-03-20T06:28:37.016Z,1013.54
2018-03-20T06:29:37.002Z,1013.57
2018-03-20T06:30:36.979Z,1013.58
2018-03-20T06:31:36.975Z,1013.62
2018-03-20T06:32:36.977Z,1013.62
2018-03-20T06:33:36.908Z,1013.65
2018-03-20T06:34:36.944Z,1013.68
2018-03-20T06:35:36.873Z,1013.72
2018-03-20T06:36:36.889Z,1013.74
2018-03-20T06:37:36.828Z,1013.72
2018-03-20T06:38:36.835Z,1013.70
2018-03-20T06:39:36.790Z,1013.75
2018-03-20T06:40:36.787Z,1013.74
2018-03-20T06:41:36.746Z,1013.73
2018-03-20T06:42:36.740Z,1013.72
2018-03-20T06:43:36.701Z,1013.74
2018-03-20T06:44:36.701Z,1013.75
2018-03-20T06:45:36.709Z,1013.78
2018-03-20T06:46:36.647Z,1013.77
2018-03-20T06:47:36.643Z,1013.84
2018-03-20T06:48:36.600Z,1013.79
2018-03-20T06:49:36.608Z,1013.77
2018-03-20T06:50:36.585Z,1013.78
2018-03-20T06:51:36.557Z,1013.83
2018-03-20T06:52:36.532Z,1013.76
2018-03-20T06:53:36.499Z,1013.85
2018-03-20T06:54:36.514Z,1013.86
2018-03-20T06:55:36.461Z,1013.88
2018-03-20T06:56:36.448Z,1013.91
2018-03-20T06:57:36.414Z,1013.90
2018-03-20T06:58:36.383Z,1013.86
2018-03-20T06:59:36.430Z,1013.87
2018-03-20T07:00:36.360Z,1013.85
2018-03-20T07:01:36.323Z,1013.84
2018-03-20T07:02:36.321Z,1013.87
2018-03-20T07:03:36.285Z,1013.83
2018-03-20T07:04:36.281Z,1013.85
2018-03-20T07:05:36.251Z,1013.86
2018-03-20T07:06:36.240Z,1013.86
2018-03-20T07:07:36.225Z,1013.90
2018-03-20T07:08:36.190Z,1013.88
2018-03-20T07:09:36.193Z,1013.93
2018-03-20T07:10:36.146Z,1013.90
2018-03-20T07:11:36.115Z,1013.92
2018-03-20T07:12:36.111Z,1013.90
2018-03-20T07:13:36.112Z,1013.90
2018-03-20T07:14:36.056Z,1013.94
2018-03-20T07:15:36.061Z,1013.92
2018-03-20T07:16:36.022Z,1013.97
2018-03-20T07:17:36.001Z,1014.00
2018-03-20T07:18:35.979Z,1014.00
2018-03-20T07:19:35.972Z,1013.98
2018-03-20T07:20:35.939Z,1013.99
2018-03-20T07:21:35.918Z,1013.99
2018-03-20T07:22:35.903Z,1013.97
2018-03-20T07:23:35.901Z,1013.98
2018-03-20T07:24:35.863Z,1013.97
2018-03-20T07:25:35.854Z,1013.98
2018-03-20T07:26:35.849Z,1013.96
2018-03-20T07:27:35.791Z,1013.94
2018-03-20T07:28:35.765Z,1013.94
2018-03-20T07:29:35.748Z,1013.91
2018-03-20T07:30:35.725Z,1013.92
2018-03-20T07:31:36.040Z,1013.85
2018-03-20T07:32:35.685Z,1013.88
2018-03-20T07:33:35.721Z,1013.89
2018-03-20T07:34:35.666Z,1013.93
2018-03-20T07:35:35.619Z,1013.94
2018-03-20T07:36:35.672Z,1013.92
2018-03-20T07:37:35.619Z,1013.98
2018-03-20T07:38:35.573Z,1013.98
2018-03-20T07:39:35.548Z,1014.03
2018-03-20T07:40:35.521Z,1014.05
2018-03-20T07:41:56.514Z,1014.14
2018-03-20T07:42:35.479Z,1014.15
2018-03-20T07:43:35.459Z,1014.15
2018-03-20T07:44:35.430Z,1014.17
2018-03-20T07:45:35.415Z,1014.18
2018-03-20T07:46:35.439Z,1014.25
2018-03-20T07:47:35.396Z,1014.24
2018-03-20T07:48:35.375Z,1014.22
2018-03-20T07:49:35.332Z,1014.26
2018-03-20T07:50:35.330Z,1014.27
2018-03-20T07:51:35.292Z,1014.28
2018-03-20T07:52:35.287Z,1014.32
2018-03-20T07:53:35.260Z,1014.37
2018-03-20T07:54:35.252Z,1014.41
2018-03-20T07:55:35.212Z,1014.42
2018-03-20T07:56:35.215Z,1014.45
2018-03-20T07:57:35.188Z,1014.47
2018-03-20T07:58:35.195Z,1014.44
2018-03-20T07:59:35.166Z,1014.49
2018-03-20T08:00:35.117Z,1014.51
2018-03-20T08:01:35.115Z,1014.51
2018-03-20T08:02:35.077Z,1014.56
2018-03-20T08:03:35.054Z,1014.58
2018-03-20T08:04:35.046Z,1014.56
2018-03-20T08:05:35.022Z,1014.49
2018-03-20T08:06:35.013Z,1014.48
2018-03-20T08:07:34.974Z,1014.45
2018-03-20T08:08:34.982Z,1014.46
2018-03-20T08:09:34.973Z,1014.42
2018-03-20T08:10:34.938Z,1014.39
2018-03-20T08:11:34.910Z,1014.38
2018-03-20T08:12:34.898Z,1014.45
2018-03-20T08:13:34.861Z,1014.34
2018-03-20T08:14:34.837Z,1014.40
2018-03-20T08:15:34.827Z,1014.39
2018-03-20T08:16:34.815Z,1014.41
2018-03-20T08:17:34.801Z,1014.43
2018-03-20T08:18:34.766Z,1014.42
2018-03-20T08:19:34.743Z,1014.36
2018-03-20T08:20:34.750Z,1014.40
2018-03-20T08:21:34.704Z,1014.37
2018-03-20T08:22:34.716Z,1014.43
2018-03-20T08:23:34.679Z,1014.46
2018-03-20T08:24:34.644Z,1014.45
2018-03-20T08:25:34.648Z,1014.51
2018-03-20T08:26:34.618Z,1014.53
2018-03-20T08:27:34.597Z,1014.50
2018-03-20T08:28:34.604Z,1014.49
2018-03-20T08:29:34.569Z,1014.52
2018-03-20T08:30:34.538Z,1014.54
2018-03-20T08:31:34.508Z,1014.55
2018-03-20T08:32:34.496Z,1014.54
2018-03-20T08:33:34.469Z,1014.61
2018-03-20T08:34:34.460Z,1014.63
2018-03-20T08:35:34.457Z,1014.66
2018-03-20T08:36:34.422Z,1014.69
2018-03-20T08:37:34.434Z,1014.70
2018-03-20T08:38:34.383Z,1014.83
2018-03-20T08:39:34.361Z,1014.80
2018-03-20T08:40:34.341Z,1014.88
2018-03-20T08:41:34.335Z,1014.87
2018-03-20T08:42:34.313Z,1014.89
2018-03-20T08:43:34.356Z,1014.89
2018-03-20T08:44:34.268Z,1014.92
2018-03-20T08:45:34.258Z,1014.86
2018-03-20T08:46:34.231Z,1014.93
2018-03-20T08:47:34.212Z,1014.93
2018-03-20T08:48:34.238Z,1014.97
2018-03-20T08:49:34.207Z,1014.98
2018-03-20T08:50:34.190Z,1015.06
2018-03-20T08:51:34.146Z,1015.06
2018-03-20T08:52:34.160Z,1015.13
2018-03-20T08:53:34.117Z,1015.06
2018-03-20T08:54:34.116Z,1015.05
2018-03-20T08:55:34.063Z,1015.07
2018-03-20T08:56:34.087Z,1015.08
2018-03-20T08:57:34.039Z,1015.10
2018-03-20T08:58:34.040Z,1015.08
2018-03-20T08:59:34.009Z,1015.12
2018-03-20T09:00:34.018Z,1015.08
2018-03-20T09:01:33.955Z,1015.07
2018-03-20T09:02:33.938Z,1015.10
2018-03-20T09:03:33.940Z,1015.18
2018-03-20T09:04:33.927Z,1015.14
2018-03-20T09:05:33.917Z,1015.22
2018-03-20T09:06:33.874Z,1015.22
2018-03-20T09:07:33.842Z,1015.23
2018-03-20T09:08:33.835Z,1015.25
2018-03-20T09:09:33.823Z,1015.32
2018-03-20T09:10:33.810Z,1015.25
2018-03-20T09:11:33.771Z,1015.26
2018-03-20T09:12:33.769Z,1015.36
2018-03-20T09:13:33.752Z,1015.31
2018-03-20T09:14:33.717Z,1015.32
2018-03-20T09:15:33.706Z,1015.29
2018-03-20T09:16:33.762Z,1015.34
2018-03-20T09:17:33.668Z,1015.38
2018-03-20T09:18:33.654Z,1015.36
2018-03-20T09:19:33.639Z,1015.52
2018-03-20T09:20:33.619Z,1015.35
2018-03-20T09:21:33.635Z,1015.34
2018-03-20T09:22:33.581Z,1015.52
2018-03-20T09:23:33.569Z,1015.50
2018-03-20T09:24:33.565Z,1015.39
2018-03-20T09:25:33.532Z,1015.31
2018-03-20T09:26:33.529Z,1015.49
2018-03-20T09:27:33.496Z,1015.50
2018-03-20T09:28:33.478Z,1015.37
2018-03-20T09:29:33.462Z,1015.36
2018-03-20T09:30:33.464Z,1015.58
2018-03-20T09:31:33.431Z,1015.65
2018-03-20T09:32:33.421Z,1015.63
2018-03-20T09:33:33.390Z,1015.68
2018-03-20T09:34:33.379Z,1015.64
2018-03-20T09:35:33.410Z,1015.70
2018-03-20T09:36:33.370Z,1015.71
2018-03-20T09:37:33.340Z,1015.79
2018-03-20T09:38:33.312Z,1015.75
2018-03-20T09:39:33.294Z,1015.75
2018-03-20T09:40:33.307Z,1015.79
2018-03-20T09:41:33.262Z,1015.87
2018-03-20T09:42:33.286Z,1015.94
2018-03-20T09:43:33.246Z,1015.89
2018-03-20T09:44:33.226Z,1015.96
2018-03-20T09:45:33.237Z,1015.94
2018-03-20T09:46:33.196Z,1015.97
2018-03-20T09:47:33.190Z,1015.95
2018-03-20T09:48:33.174Z,1016.00
2018-03-20T09:49:33.154Z,1015.77
2018-03-20T09:50:33.160Z,1016.05
2018-03-20T09:51:33.160Z,1016.01
2018-03-20T09:52:33.127Z,1016.02
2018-03-20T09:53:33.108Z,1016.08
2018-03-20T09:54:33.134Z,1016.10
2018-03-20T09:55:33.112Z,1016.12
2018-03-20T09:56:33.069Z,1016.04
2018-03-20T09:57:33.055Z,1016.13
2018-03-20T09:58:33.070Z,1016.13
2018-03-20T09:59:33.049Z,1016.17
2018-03-20T10:00:33.048Z,1016.27
2018-03-20T10:01:33.032Z,1016.16
2018-03-20T10:02:33.013Z,1016.05
2018-03-20T10:03:32.999Z,1016.27
2018-03-20T10:04:32.984Z,1016.33
2018-03-20T10:05:32.991Z,1016.36
2018-03-20T10:06:32.974Z,1016.34
2018-03-20T10:07:32.965Z,1016.33
2018-03-20T10:08:32.950Z,1016.34
2018-03-20T10:09:32.938Z,1016.16
2018-03-20T10:10:32.955Z,1016.25
2018-03-20T10:11:32.921Z,1016.21
2018-03-20T10:12:32.920Z,1016.37
2018-03-20T10:13:32.896Z,1016.53
2018-03-20T10:14:32.902Z,1016.25
2018-03-20T10:15:32.883Z,1016.27
2018-03-20T10:16:32.886Z,1016.41
2018-03-20T10:17:32.953Z,1016.43
2018-03-20T10:18:39.450Z,1016.42
2018-03-20T10:19:32.886Z,1016.46
2018-03-20T10:20:32.885Z,1016.50
2018-03-20T10:21:32.839Z,1016.43
2018-03-20T10:22:34.450Z,1016.20
2018-03-20T10:23:32.818Z,1016.57
2018-03-20T10:24:32.838Z,1016.45
2018-03-20T10:25:32.798Z,1016.59
2018-03-20T10:26:32.802Z,1016.60
2018-03-20T10:27:32.838Z,1016.54
2018-03-20T10:28:32.803Z,1016.56
2018-03-20T10:29:32.822Z,1016.56
2018-03-20T10:30:32.740Z,1016.55
2018-03-20T10:31:32.729Z,1016.68
2018-03-20T10:32:32.719Z,1016.67
2018-03-20T10:33:32.724Z,1016.63
2018-03-20T10:34:32.738Z,1016.70
2018-03-20T10:35:32.688Z,1016.68
2018-03-20T10:36:35.518Z,1016.77
2018-03-20T10:37:32.673Z,1016.75
2018-03-20T10:38:32.701Z,1016.77
2018-03-20T10:39:32.730Z,1016.76
2018-03-20T10:40:32.706Z,1016.84
2018-03-20T10:41:32.654Z,1016.79
2018-03-20T10:42:33.546Z,1016.75
2018-03-20T10:43:32.647Z,1016.73
2018-03-20T10:44:32.635Z,1016.76
2018-03-20T10:45:32.708Z,1016.81
2018-03-20T10:46:32.618Z,1016.81
2018-03-20T10:47:32.620Z,1016.85
2018-03-20T10:48:32.628Z,1016.82
2018-03-20T10:49:32.602Z,1016.87
2018-03-20T10:50:32.590Z,1016.68
2018-03-20T10:51:32.602Z,1016.56
2018-03-20T10:52:32.567Z,1016.97
2018-03-20T10:53:32.557Z,1016.77
2018-03-20T10:54:32.578Z,1016.75
2018-03-20T10:55:32.555Z,1016.92
2018-03-20T10:56:32.579Z,1016.87
2018-03-20T10:57:32.541Z,1016.94
2018-03-20T10:58:32.553Z,1016.94
2018-03-20T10:59:32.517Z,1016.62
2018-03-20T11:00:32.524Z,1016.98
2018-03-20T11:01:32.582Z,1016.81
2018-03-20T11:02:32.528Z,1016.98
2018-03-20T11:03:32.511Z,1016.93
2018-03-20T11:04:32.516Z,1016.98
2018-03-20T11:05:32.500Z,1017.03
2018-03-20T11:06:32.463Z,1017.06
2018-03-20T11:07:32.492Z,1017.08
2018-03-20T11:08:32.445Z,1017.03
2018-03-20T11:09:32.470Z,1017.08
2018-03-20T11:10:32.437Z,1017.03
2018-03-20T11:11:32.438Z,1017.06
2018-03-20T11:12:32.446Z,1016.97
2018-03-20T11:13:53.470Z,1016.98
2018-03-20T11:14:32.410Z,1017.04
2018-03-20T11:15:33.019Z,1017.05
2018-03-20T11:16:32.391Z,1017.07
2018-03-20T11:17:32.437Z,1017.02
2018-03-20T11:18:32.426Z,1017.02
2018-03-20T11:19:32.382Z,1017.09
2018-03-20T11:20:32.359Z,1017.11
2018-03-20T11:21:32.358Z,1017.05
2018-03-20T11:22:32.774Z,1017.11
2018-03-20T11:23:32.359Z,1017.09
2018-03-20T11:24:32.350Z,1017.11
2018-03-20T11:25:53.351Z,1017.06
2018-03-20T11:27:32.363Z,1017.13
2018-03-20T11:28:32.333Z,1017.15
2018-03-20T11:29:32.330Z,1017.21
2018-03-20T11:30:32.321Z,1017.12
2018-03-20T11:31:32.320Z,1017.15
2018-03-20T11:32:32.304Z,1017.16
2018-03-20T11:33:33.075Z,1017.08
2018-03-20T11:34:32.267Z,1017.12
2018-03-20T11:35:32.273Z,1017.12
2018-03-20T11:36:32.552Z,1017.16
2018-03-20T11:37:33.069Z,1017.12
2018-03-20T11:38:32.261Z,1017.17
2018-03-20T11:39:33.010Z,1017.12
2018-03-20T11:40:32.287Z,1017.19
2018-03-20T11:41:32.255Z,1017.17
2018-03-20T11:42:32.287Z,1017.10
2018-03-20T11:43:32.244Z,1017.09
2018-03-20T11:44:32.214Z,1017.20
2018-03-20T11:45:32.208Z,1017.11
2018-03-20T11:46:32.226Z,1017.12
2018-03-20T11:47:32.239Z,1017.09
2018-03-20T11:48:32.193Z,1017.16
2018-03-20T11:49:32.258Z,1017.17
2018-03-20T11:50:32.187Z,1017.18
2018-03-20T11:51:32.171Z,1017.26
2018-03-20T11:52:32.186Z,1017.35
2018-03-20T11:53:32.160Z,1017.25
2018-03-20T11:54:32.181Z,1017.23
2018-03-20T11:55:32.171Z,1017.23
2018-03-20T11:56:32.147Z,1017.18
2018-03-20T11:57:32.168Z,1017.18
2018-03-20T11:58:32.156Z,1017.22
2018-03-20T11:59:32.119Z,1017.23
2018-03-20T12:00:32.111Z,1017.21
2018-03-20T12:01:32.114Z,1017.19
2018-03-20T12:02:33.034Z,1017.25
2018-03-20T12:03:32.127Z,1017.21
2018-03-20T12:04:32.124Z,1017.20
2018-03-20T12:05:32.081Z,1017.22
2018-03-20T12:06:32.100Z,1017.24
2018-03-20T12:07:32.089Z,1017.20
2018-03-20T12:08:32.074Z,1017.18
2018-03-20T12:09:32.080Z,1017.33
2018-03-20T12:10:32.072Z,1017.25
2018-03-20T12:11:32.053Z,1017.31
2018-03-20T12:12:32.060Z,1017.32
2018-03-20T12:13:32.042Z,1017.27
2018-03-20T12:14:32.059Z,1017.34
2018-03-20T12:15:32.045Z,1017.36
2018-03-20T12:16:32.038Z,1017.36
2018-03-20T12:17:32.039Z,1017.29
2018-03-20T12:18:32.012Z,1017.32
2018-03-20T12:19:32.026Z,1017.41
2018-03-20T12:20:32.012Z,1017.43
2018-03-20T12:21:31.992Z,1017.35
2018-03-20T12:22:31.985Z,1017.33
2018-03-20T12:23:31.974Z,1017.37
2018-03-20T12:24:31.986Z,1017.37
2018-03-20T12:25:32.155Z,1017.38
2018-03-20T12:26:31.964Z,1017.35
2018-03-20T12:27:31.947Z,1017.42
2018-03-20T12:28:31.952Z,1017.42
2018-03-20T12:29:31.945Z,1017.17
2018-03-20T12:30:31.966Z,1017.57
2018-03-20T12:31:31.947Z,1017.52
2018-03-20T12:32:31.919Z,1017.43
2018-03-20T12:33:31.942Z,1017.45
2018-03-20T12:34:31.901Z,1017.52
2018-03-20T12:35:31.901Z,1017.52
2018-03-20T12:36:31.890Z,1017.50
2018-03-20T12:37:31.909Z,1017.41
2018-03-20T12:38:31.900Z,1017.49
2018-03-20T12:39:31.890Z,1017.55
2018-03-20T12:40:31.857Z,1017.42
2018-03-20T12:41:31.855Z,1017.53
2018-03-20T12:42:31.871Z,1017.54
2018-03-20T12:43:31.849Z,1017.53
2018-03-20T12:44:31.846Z,1017.51
2018-03-20T12:45:31.842Z,1017.54
2018-03-20T12:46:31.850Z,1017.48
2018-03-20T12:47:31.810Z,1017.55
2018-03-20T12:48:31.836Z,1017.56
2018-03-20T12:49:31.820Z,1017.57
2018-03-20T12:50:31.788Z,1017.50
2018-03-20T12:51:31.786Z,1017.49
2018-03-20T12:52:31.781Z,1017.61
2018-03-20T12:53:31.787Z,1017.52
2018-03-20T12:54:31.808Z,1017.61
2018-03-20T12:55:31.764Z,1017.60